sensor_id;sensor_type;location;lat;lon;timestamp;pressure;altitude;pressure_sealevel;temperature;humidity
21096;BME280;10706;49.036;12.112;2023-04-01T00:01:01;96369.31;;;7.35;87.48
21096;BME280;10706;49.036;12.112;2023-04-01T00:03:28;96364.56;;;7.37;86.85
21096;BME280;10706;49.036;12.112;2023-04-01T00:05:56;96365.63;;;7.36;87.14
21096;BME280;10706;49.036;12.112;2023-04-01T00:08:23;96366.19;;;7.38;87.28
21096;BME280;10706;49.036;12.112;2023-04-01T00:10:50;96352.97;;;7.44;86.33
21096;BME280;10706;49.036;12.112;2023-04-01T00:13:16;96352.44;;;7.47;87.37
21096;BME280;10706;49.036;12.112;2023-04-01T00:15:42;96360.53;;;7.57;86.25
21096;BME280;10706;49.036;12.112;2023-04-01T00:18:09;96348.38;;;7.61;85.30
21096;BME280;10706;49.036;12.112;2023-04-01T00:20:35;96350.25;;;7.66;84.08
21096;BME280;10706;49.036;12.112;2023-04-01T00:23:02;96354.53;;;7.67;85.17
21096;BME280;10706;49.036;12.112;2023-04-01T00:25:29;96353.19;;;7.64;84.74
21096;BME280;10706;49.036;12.112;2023-04-01T00:27:54;96352.38;;;7.64;85.70
21096;BME280;10706;49.036;12.112;2023-04-01T00:30:21;96360.09;;;7.65;84.73
21096;BME280;10706;49.036;12.112;2023-04-01T00:32:47;96363.53;;;7.66;85.26
21096;BME280;10706;49.036;12.112;2023-04-01T00:35:17;96364.13;;;7.68;84.99
21096;BME280;10706;49.036;12.112;2023-04-01T00:37:43;96354.78;;;7.65;84.68
21096;BME280;10706;49.036;12.112;2023-04-01T00:40:42;96357.19;;;7.67;84.60
21096;BME280;10706;49.036;12.112;2023-04-01T00:43:18;96346.81;;;7.65;84.71
21096;BME280;10706;49.036;12.112;2023-04-01T00:45:47;96355.28;;;7.62;84.18
21096;BME280;10706;49.036;12.112;2023-04-01T00:48:21;96345.41;;;7.57;84.68
21096;BME280;10706;49.036;12.112;2023-04-01T00:53:21;96344.06;;;7.55;84.76
21096;BME280;10706;49.036;12.112;2023-04-01T00:56:17;96345.03;;;7.49;84.56
21096;BME280;10706;49.036;12.112;2023-04-01T00:58:50;96345.03;;;7.49;84.66
21096;BME280;10706;49.036;12.112;2023-04-01T01:01:17;96342.34;;;7.44;85.52
21096;BME280;10706;49.036;12.112;2023-04-01T01:03:44;96347.91;;;7.42;85.38
21096;BME280;10706;49.036;12.112;2023-04-01T01:06:23;96351.47;;;7.53;85.12
21096;BME280;10706;49.036;12.112;2023-04-01T01:09:15;96345.88;;;7.54;84.02
21096;BME280;10706;49.036;12.112;2023-04-01T01:12:00;96340.63;;;7.59;82.80
21096;BME280;10706;49.036;12.112;2023-04-01T01:14:54;96342.44;;;7.54;84.28
21096;BME280;10706;49.036;12.112;2023-04-01T01:17:59;96336.81;;;7.50;84.37
21096;BME280;10706;49.036;12.112;2023-04-01T01:24:00;96343.13;;;7.44;84.41
21096;BME280;10706;49.036;12.112;2023-04-01T01:27:11;96333.56;;;7.43;84.77
21096;BME280;10706;49.036;12.112;2023-04-01T01:30:12;96339.16;;;7.42;85.20
21096;BME280;10706;49.036;12.112;2023-04-01T01:35:54;96340.78;;;7.48;84.12
21096;BME280;10706;49.036;12.112;2023-04-01T01:38:29;96335.25;;;7.49;83.87
21096;BME280;10706;49.036;12.112;2023-04-01T01:40:57;96335.53;;;7.53;83.79
21096;BME280;10706;49.036;12.112;2023-04-01T01:43:29;96336.81;;;7.50;83.39
21096;BME280;10706;49.036;12.112;2023-04-01T01:45:59;96329.94;;;7.49;83.40
21096;BME280;10706;49.036;12.112;2023-04-01T01:48:28;96333.63;;;7.48;84.08
21096;BME280;10706;49.036;12.112;2023-04-01T01:50:54;96333.94;;;7.52;83.45
21096;BME280;10706;49.036;12.112;2023-04-01T01:53:21;96327.28;;;7.54;83.34
21096;BME280;10706;49.036;12.112;2023-04-01T01:55:47;96336.09;;;7.55;83.77
21096;BME280;10706;49.036;12.112;2023-04-01T01:58:36;96337.69;;;7.56;83.18
21096;BME280;10706;49.036;12.112;2023-04-01T02:01:12;96334.53;;;7.59;83.81
21096;BME280;10706;49.036;12.112;2023-04-01T02:03:39;96328.91;;;7.55;83.17
21096;BME280;10706;49.036;12.112;2023-04-01T02:06:10;96336.09;;;7.55;83.43
21096;BME280;10706;49.036;12.112;2023-04-01T02:08:47;96336.63;;;7.57;83.45
21096;BME280;10706;49.036;12.112;2023-04-01T02:11:26;96331.28;;;7.52;84.00
21096;BME280;10706;49.036;12.112;2023-04-01T02:16:51;96333.13;;;7.51;83.55
21096;BME280;10706;49.036;12.112;2023-04-01T02:19:23;96326.97;;;7.46;84.54
21096;BME280;10706;49.036;12.112;2023-04-01T02:21:56;96334.06;;;7.40;85.14
21096;BME280;10706;49.036;12.112;2023-04-01T02:24:25;96321.09;;;7.44;84.70
21096;BME280;10706;49.036;12.112;2023-04-01T02:26:53;96329.31;;;7.42;84.68
21096;BME280;10706;49.036;12.112;2023-04-01T02:29:25;96329.31;;;7.42;84.39
21096;BME280;10706;49.036;12.112;2023-04-01T02:31:52;96327.97;;;7.39;84.57
21096;BME280;10706;49.036;12.112;2023-04-01T02:34:20;96335.13;;;7.39;84.47
21096;BME280;10706;49.036;12.112;2023-04-01T02:36:48;96343.09;;;7.39;85.51
21096;BME280;10706;49.036;12.112;2023-04-01T02:39:15;96344.94;;;7.38;85.29
21096;BME280;10706;49.036;12.112;2023-04-01T02:41:43;96346.03;;;7.43;84.75
21096;BME280;10706;49.036;12.112;2023-04-01T02:44:12;96343.31;;;7.37;86.15
21096;BME280;10706;49.036;12.112;2023-04-01T02:46:39;96349.16;;;7.34;85.76
21096;BME280;10706;49.036;12.112;2023-04-01T02:49:05;96357.13;;;7.34;86.00
21096;BME280;10706;49.036;12.112;2023-04-01T02:51:32;96353.91;;;7.32;86.19
21096;BME280;10706;49.036;12.112;2023-04-01T02:53:58;96357.59;;;7.31;85.75
21096;BME280;10706;49.036;12.112;2023-04-01T02:56:24;96358.16;;;7.33;85.28
21096;BME280;10706;49.036;12.112;2023-04-01T02:58:52;96365.63;;;7.36;85.68
21096;BME280;10706;49.036;12.112;2023-04-01T03:01:18;96365.88;;;7.35;85.93
21096;BME280;10706;49.036;12.112;2023-04-01T03:03:44;96361.91;;;7.37;85.63
21096;BME280;10706;49.036;12.112;2023-04-01T03:06:15;96361.91;;;7.37;85.52
21096;BME280;10706;49.036;12.112;2023-04-01T03:08:42;96366.19;;;7.38;85.20
21096;BME280;10706;49.036;12.112;2023-04-01T03:11:08;96367.22;;;7.37;85.19
21096;BME280;10706;49.036;12.112;2023-04-01T03:13:34;96368.84;;;7.38;84.73
21096;BME280;10706;49.036;12.112;2023-04-01T03:16:00;96363.28;;;7.40;84.94
21096;BME280;10706;49.036;12.112;2023-04-01T03:18:26;96375.25;;;7.43;85.09
21096;BME280;10706;49.036;12.112;2023-04-01T03:20:53;96368.34;;;7.42;85.43
21096;BME280;10706;49.036;12.112;2023-04-01T03:23:19;96371.50;;;7.38;84.93
21096;BME280;10706;49.036;12.112;2023-04-01T03:25:47;96370.16;;;7.36;84.85
21096;BME280;10706;49.036;12.112;2023-04-01T03:28:14;96370.09;;;7.31;85.70
21096;BME280;10706;49.036;12.112;2023-04-01T03:30:40;96373.53;;;7.31;85.06
21096;BME280;10706;49.036;12.112;2023-04-01T03:33:07;96375.63;;;7.29;85.39
21096;BME280;10706;49.036;12.112;2023-04-01T03:35:33;96374.09;;;7.33;85.25
21096;BME280;10706;49.036;12.112;2023-04-01T03:38:01;96379.16;;;7.35;85.38
21096;BME280;10706;49.036;12.112;2023-04-01T03:40:27;96377.03;;;7.37;84.99
21096;BME280;10706;49.036;12.112;2023-04-01T03:42:53;96376.81;;;7.38;84.73
21096;BME280;10706;49.036;12.112;2023-04-01T03:45:19;96380.25;;;7.39;84.11
21096;BME280;10706;49.036;12.112;2023-04-01T03:47:46;96386.88;;;7.36;85.12
21096;BME280;10706;49.036;12.112;2023-04-01T03:50:12;96383.97;;;7.38;83.79
21096;BME280;10706;49.036;12.112;2023-04-01T03:52:38;96384.22;;;7.36;84.86
21096;BME280;10706;49.036;12.112;2023-04-01T03:55:04;96379.41;;;7.33;84.85
21096;BME280;10706;49.036;12.112;2023-04-01T03:57:33;96375.94;;;7.33;84.49
21096;BME280;10706;49.036;12.112;2023-04-01T03:59:59;96381.50;;;7.31;84.50
21096;BME280;10706;49.036;12.112;2023-04-01T04:02:25;96380.16;;;7.29;84.74
21096;BME280;10706;49.036;12.112;2023-04-01T04:04:51;96387.00;;;7.25;84.72
21096;BME280;10706;49.036;12.112;2023-04-01T04:07:17;96388.34;;;7.27;85.03
21096;BME280;10706;49.036;12.112;2023-04-01T04:09:43;96381.16;;;7.23;85.39
21096;BME280;10706;49.036;12.112;2023-04-01T04:12:10;96388.28;;;7.22;85.53
21096;BME280;10706;49.036;12.112;2023-04-01T04:14:36;96396.25;;;7.22;85.56
21096;BME280;10706;49.036;12.112;2023-04-01T04:17:02;96380.56;;;7.20;85.40
21096;BME280;10706;49.036;12.112;2023-04-01T04:19:32;96386.63;;;7.16;84.53
21096;BME280;10706;49.036;12.112;2023-04-01T04:21:59;96383.72;;;7.17;85.54
21096;BME280;10706;49.036;12.112;2023-04-01T04:24:27;96388.50;;;7.15;84.88
21096;BME280;10706;49.036;12.112;2023-04-01T04:26:53;96391.13;;;7.15;84.52
21096;BME280;10706;49.036;12.112;2023-04-01T04:29:19;96392.66;;;7.11;85.46
21096;BME280;10706;49.036;12.112;2023-04-01T04:31:45;96392.09;;;7.09;86.15
21096;BME280;10706;49.036;12.112;2023-04-01T04:34:11;96397.69;;;7.08;85.39
21096;BME280;10706;49.036;12.112;2023-04-01T04:36:37;96394.75;;;7.09;86.33
21096;BME280;10706;49.036;12.112;2023-04-01T04:39:03;96398.78;;;7.12;86.11
21096;BME280;10706;49.036;12.112;2023-04-01T04:41:29;96396.69;;;7.14;86.11
21096;BME280;10706;49.036;12.112;2023-04-01T04:43:56;96402.59;;;6.99;87.16
21096;BME280;10706;49.036;12.112;2023-04-01T04:46:23;96405.91;;;6.89;88.19
21096;BME280;10706;49.036;12.112;2023-04-01T04:48:49;96410.91;;;6.86;88.12
21096;BME280;10706;49.036;12.112;2023-04-01T04:51:17;96412.25;;;6.88;88.32
21096;BME280;10706;49.036;12.112;2023-04-01T04:53:44;96400.06;;;6.87;88.06
21096;BME280;10706;49.036;12.112;2023-04-01T04:56:11;96403.66;;;6.81;88.68
21096;BME280;10706;49.036;12.112;2023-04-01T04:58:40;96394.59;;;6.77;88.39
21096;BME280;10706;49.036;12.112;2023-04-01T05:01:14;96398.00;;;6.72;89.18
21096;BME280;10706;49.036;12.112;2023-04-01T05:03:41;96401.69;;;6.71;88.66
21096;BME280;10706;49.036;12.112;2023-04-01T05:06:09;96410.03;;;6.80;88.13
21096;BME280;10706;49.036;12.112;2023-04-01T05:08:37;96404.19;;;6.78;87.83
21096;BME280;10706;49.036;12.112;2023-04-01T05:11:07;96412.06;;;6.73;88.66
21096;BME280;10706;49.036;12.112;2023-04-01T05:13:36;96410.69;;;6.70;88.58
21096;BME280;10706;49.036;12.112;2023-04-01T05:16:02;96409.41;;;6.73;87.88
21096;BME280;10706;49.036;12.112;2023-04-01T05:18:28;96418.47;;;6.77;87.90
21096;BME280;10706;49.036;12.112;2023-04-01T05:20:55;96424.91;;;6.81;87.45
21096;BME280;10706;49.036;12.112;2023-04-01T05:23:22;96422.88;;;6.88;87.15
21096;BME280;10706;49.036;12.112;2023-04-01T05:25:48;96435.66;;;6.91;86.88
21096;BME280;10706;49.036;12.112;2023-04-01T05:28:16;96426.47;;;6.99;86.80
21096;BME280;10706;49.036;12.112;2023-04-01T05:30:42;96425.19;;;7.01;86.48
21096;BME280;10706;49.036;12.112;2023-04-01T05:33:10;96428.47;;;7.09;84.81
21096;BME280;10706;49.036;12.112;2023-04-01T05:35:36;96422.44;;;7.13;86.03
21096;BME280;10706;49.036;12.112;2023-04-01T05:38:03;96430.97;;;7.15;85.42
21096;BME280;10706;49.036;12.112;2023-04-01T05:40:29;96429.66;;;7.18;85.34
21096;BME280;10706;49.036;12.112;2023-04-01T05:42:56;96433.84;;;7.14;86.06
21096;BME280;10706;49.036;12.112;2023-04-01T05:45:22;96429.25;;;7.09;86.95
21096;BME280;10706;49.036;12.112;2023-04-01T05:47:49;96422.59;;;7.07;86.52
21096;BME280;10706;49.036;12.112;2023-04-01T05:50:15;96428.78;;;7.12;87.16
21096;BME280;10706;49.036;12.112;2023-04-01T05:52:41;96419.03;;;7.18;86.17
21096;BME280;10706;49.036;12.112;2023-04-01T05:55:08;96420.69;;;7.24;86.51
21096;BME280;10706;49.036;12.112;2023-04-01T05:57:34;96427.69;;;7.30;86.06
21096;BME280;10706;49.036;12.112;2023-04-01T06:00:00;96436.25;;;7.37;85.57
21096;BME280;10706;49.036;12.112;2023-04-01T06:02:26;96435.47;;;7.37;85.43
21096;BME280;10706;49.036;12.112;2023-04-01T06:05:18;96429.78;;;7.50;85.28
21096;BME280;10706;49.036;12.112;2023-04-01T06:07:45;96431.09;;;7.48;84.29
21096;BME280;10706;49.036;12.112;2023-04-01T06:10:20;96439.69;;;7.55;84.15
21096;BME280;10706;49.036;12.112;2023-04-01T06:13:00;96431.94;;;7.53;84.59
21096;BME280;10706;49.036;12.112;2023-04-01T06:16:07;96429.06;;;7.55;83.74
21096;BME280;10706;49.036;12.112;2023-04-01T06:18:58;96436.25;;;7.59;84.38
21096;BME280;10706;49.036;12.112;2023-04-01T06:24:50;96425.47;;;7.66;82.24
21096;BME280;10706;49.036;12.112;2023-04-01T06:30:34;96433.19;;;7.68;82.28
21096;BME280;10706;49.036;12.112;2023-04-01T06:54:14;96446.31;;;7.79;82.16
21096;BME280;10706;49.036;12.112;2023-04-01T06:56:45;96442.81;;;7.74;82.22
21096;BME280;10706;49.036;12.112;2023-04-01T06:59:25;96444.00;;;7.61;83.40
21096;BME280;10706;49.036;12.112;2023-04-01T07:02:12;96439.53;;;7.67;83.12
21096;BME280;10706;49.036;12.112;2023-04-01T07:04:47;96440.50;;;7.83;81.28
21096;BME280;10706;49.036;12.112;2023-04-01T07:07:43;96444.91;;;7.99;82.23
21096;BME280;10706;49.036;12.112;2023-04-01T07:13:05;96438.34;;;8.07;81.07
21096;BME280;10706;49.036;12.112;2023-04-01T07:15:42;96444.41;;;8.29;79.32
21096;BME280;10706;49.036;12.112;2023-04-01T07:18:24;96438.13;;;8.41;77.70
21096;BME280;10706;49.036;12.112;2023-04-01T07:20:54;96439.16;;;8.34;80.11
21096;BME280;10706;49.036;12.112;2023-04-01T07:23:38;96438.94;;;8.41;78.14
21096;BME280;10706;49.036;12.112;2023-04-01T07:26:24;96440.69;;;8.57;77.46
21096;BME280;10706;49.036;12.112;2023-04-01T07:28:52;96439.88;;;8.57;77.92
21096;BME280;10706;49.036;12.112;2023-04-01T07:35:02;96446.97;;;8.46;77.03
21096;BME280;10706;49.036;12.112;2023-04-01T07:37:58;96448.59;;;8.47;76.78
21096;BME280;10706;49.036;12.112;2023-04-01T07:50:18;96455.34;;;8.98;76.21
21096;BME280;10706;49.036;12.112;2023-04-01T07:56:36;96446.13;;;9.10;74.44
21096;BME280;10706;49.036;12.112;2023-04-01T08:07:20;96445.28;;;9.05;75.08
21096;BME280;10706;49.036;12.112;2023-04-01T08:22:29;96436.81;;;9.81;71.32
21096;BME280;10706;49.036;12.112;2023-04-01T08:25:01;96434.38;;;9.59;70.90
21096;BME280;10706;49.036;12.112;2023-04-01T08:27:39;96439.41;;;9.61;71.38
21096;BME280;10706;49.036;12.112;2023-04-01T08:30:49;96432.06;;;9.93;70.57
21096;BME280;10706;49.036;12.112;2023-04-01T08:33:31;96433.16;;;10.03;69.54
21096;BME280;10706;49.036;12.112;2023-04-01T08:36:14;96430.16;;;9.89;69.76
21096;BME280;10706;49.036;12.112;2023-04-01T08:38:49;96438.50;;;10.08;69.59
21096;BME280;10706;49.036;12.112;2023-04-01T08:44:35;96419.81;;;10.13;67.97
21096;BME280;10706;49.036;12.112;2023-04-01T08:47:41;96420.16;;;10.42;67.98
21096;BME280;10706;49.036;12.112;2023-04-01T08:53:24;96423.34;;;10.65;65.57
21096;BME280;10706;49.036;12.112;2023-04-01T08:56:19;96418.53;;;10.77;65.15
21096;BME280;10706;49.036;12.112;2023-04-01T09:14:06;96420.13;;;10.83;64.85
21096;BME280;10706;49.036;12.112;2023-04-01T09:17:18;96425.50;;;10.68;64.78
21096;BME280;10706;49.036;12.112;2023-04-01T09:32:40;96423.03;;;10.92;62.92
21096;BME280;10706;49.036;12.112;2023-04-01T09:38:37;96412.69;;;10.70;64.94
21096;BME280;10706;49.036;12.112;2023-04-01T09:41:30;96421.19;;;10.82;64.83
21096;BME280;10706;49.036;12.112;2023-04-01T09:44:11;96430.28;;;10.71;64.85
21096;BME280;10706;49.036;12.112;2023-04-01T09:53:34;96416.41;;;10.64;66.33
21096;BME280;10706;49.036;12.112;2023-04-01T10:19:49;96419.38;;;10.62;65.52
21096;BME280;10706;49.036;12.112;2023-04-01T10:22:49;96409.47;;;10.73;63.92
21096;BME280;10706;49.036;12.112;2023-04-01T10:55:48;96392.09;;;10.96;64.26
21096;BME280;10706;49.036;12.112;2023-04-01T10:58:39;96389.91;;;11.03;64.50
21096;BME280;10706;49.036;12.112;2023-04-01T11:13:24;96385.19;;;11.50;63.09
21096;BME280;10706;49.036;12.112;2023-04-01T11:16:21;96390.63;;;11.29;62.51
21096;BME280;10706;49.036;12.112;2023-04-01T11:25:23;96382.41;;;11.16;63.90
21096;BME280;10706;49.036;12.112;2023-04-01T11:31:09;96388.66;;;10.60;65.85
21096;BME280;10706;49.036;12.112;2023-04-01T11:33:54;96388.38;;;10.56;66.93
21096;BME280;10706;49.036;12.112;2023-04-01T11:36:36;96390.53;;;10.34;69.35
21096;BME280;10706;49.036;12.112;2023-04-01T11:39:20;96399.75;;;9.75;74.24
21096;BME280;10706;49.036;12.112;2023-04-01T11:48:14;96419.91;;;8.92;81.29
21096;BME280;10706;49.036;12.112;2023-04-01T11:51:25;96421.22;;;8.89;82.32
21096;BME280;10706;49.036;12.112;2023-04-01T11:57:34;96424.91;;;8.83;85.48
21096;BME280;10706;49.036;12.112;2023-04-01T12:03:30;96435.72;;;8.66;85.28
21096;BME280;10706;49.036;12.112;2023-04-01T12:12:36;96429.88;;;8.69;86.74
21096;BME280;10706;49.036;12.112;2023-04-01T12:19:03;96423.72;;;9.06;85.08
21096;BME280;10706;49.036;12.112;2023-04-01T12:21:54;96433.06;;;9.14;84.84
21096;BME280;10706;49.036;12.112;2023-04-01T12:27:40;96435.09;;;8.97;85.30
21096;BME280;10706;49.036;12.112;2023-04-01T12:36:31;96437.81;;;8.64;90.24
21096;BME280;10706;49.036;12.112;2023-04-01T12:39:42;96442.34;;;8.36;88.46
21096;BME280;10706;49.036;12.112;2023-04-01T12:42:56;96431.53;;;8.43;90.63
21096;BME280;10706;49.036;12.112;2023-04-01T12:45:38;96440.66;;;8.52;88.26
21096;BME280;10706;49.036;12.112;2023-04-01T12:48:39;96441.41;;;8.48;88.94
21096;BME280;10706;49.036;12.112;2023-04-01T13:00:46;96437.53;;;8.61;89.08
21096;BME280;10706;49.036;12.112;2023-04-01T13:06:37;96446.44;;;8.44;91.33
21096;BME280;10706;49.036;12.112;2023-04-01T13:15:27;96454.75;;;8.26;93.92
21096;BME280;10706;49.036;12.112;2023-04-01T13:27:02;96450.00;;;8.28;92.10
21096;BME280;10706;49.036;12.112;2023-04-01T13:33:02;96459.78;;;8.22;90.96
21096;BME280;10706;49.036;12.112;2023-04-01T13:35:39;96452.59;;;8.23;93.25
21096;BME280;10706;49.036;12.112;2023-04-01T13:43:52;96455.81;;;8.25;95.12
21096;BME280;10706;49.036;12.112;2023-04-01T13:53:40;96463.53;;;7.99;95.00
21096;BME280;10706;49.036;12.112;2023-04-01T14:11:21;96470.63;;;8.15;94.59
21096;BME280;10706;49.036;12.112;2023-04-01T14:18:10;96468.31;;;8.24;94.43
21096;BME280;10706;49.036;12.112;2023-04-01T14:30:24;96471.22;;;8.23;94.02
21096;BME280;10706;49.036;12.112;2023-04-01T14:37:00;96465.19;;;8.32;95.30
21096;BME280;10706;49.036;12.112;2023-04-01T14:40:16;96476.13;;;8.36;95.52
21096;BME280;10706;49.036;12.112;2023-04-01T14:45:59;96467.59;;;8.34;95.22
21096;BME280;10706;49.036;12.112;2023-04-01T14:48:59;96468.00;;;8.21;94.69
21096;BME280;10706;49.036;12.112;2023-04-01T14:51:36;96466.56;;;8.08;94.95
21096;BME280;10706;49.036;12.112;2023-04-01T14:54:30;96481.41;;;8.04;94.08
21096;BME280;10706;49.036;12.112;2023-04-01T14:57:24;96477.81;;;7.93;95.94
21096;BME280;10706;49.036;12.112;2023-04-01T15:00:09;96475.72;;;7.95;97.55
21096;BME280;10706;49.036;12.112;2023-04-01T15:02:57;96478.69;;;7.98;96.42
21096;BME280;10706;49.036;12.112;2023-04-01T15:05:47;96483.75;;;8.00;96.85
21096;BME280;10706;49.036;12.112;2023-04-01T15:11:54;96479.38;;;8.16;97.11
21096;BME280;10706;49.036;12.112;2023-04-01T15:14:53;96476.94;;;8.09;94.85
21096;BME280;10706;49.036;12.112;2023-04-01T15:17:48;96476.69;;;8.11;96.77
21096;BME280;10706;49.036;12.112;2023-04-01T15:20:33;96480.16;;;8.11;95.82
21096;BME280;10706;49.036;12.112;2023-04-01T15:32:26;96481.56;;;8.46;96.75
21096;BME280;10706;49.036;12.112;2023-04-01T15:35:20;96486.13;;;8.51;94.83
21096;BME280;10706;49.036;12.112;2023-04-01T15:41:02;96487.59;;;8.64;94.25
21096;BME280;10706;49.036;12.112;2023-04-01T15:46:43;96500.34;;;8.62;92.40
21096;BME280;10706;49.036;12.112;2023-04-01T16:01:26;96511.00;;;8.67;89.53
21096;BME280;10706;49.036;12.112;2023-04-01T16:07:55;96497.19;;;8.70;91.02
21096;BME280;10706;49.036;12.112;2023-04-01T16:16:35;96504.25;;;8.86;89.25
21096;BME280;10706;49.036;12.112;2023-04-01T16:19:51;96501.00;;;8.79;88.49
21096;BME280;10706;49.036;12.112;2023-04-01T16:22:19;96501.50;;;8.76;90.09
21096;BME280;10706;49.036;12.112;2023-04-01T16:28:56;96498.00;;;8.70;90.56
21096;BME280;10706;49.036;12.112;2023-04-01T16:31:30;96510.22;;;8.66;90.62
21096;BME280;10706;49.036;12.112;2023-04-01T16:37:00;96514.91;;;8.54;91.42
21096;BME280;10706;49.036;12.112;2023-04-01T16:42:57;96522.53;;;8.45;94.05
21096;BME280;10706;49.036;12.112;2023-04-01T16:45:41;96525.09;;;8.40;92.24
21096;BME280;10706;49.036;12.112;2023-04-01T16:48:13;96532.53;;;8.38;93.13
21096;BME280;10706;49.036;12.112;2023-04-01T16:51:03;96532.47;;;8.33;93.01
21096;BME280;10706;49.036;12.112;2023-04-01T16:53:47;96532.94;;;8.25;94.30
21096;BME280;10706;49.036;12.112;2023-04-01T16:56:25;96540.03;;;8.19;94.81
21096;BME280;10706;49.036;12.112;2023-04-01T17:04:43;96533.81;;;8.08;95.27
21096;BME280;10706;49.036;12.112;2023-04-01T17:22:25;96548.66;;;8.04;95.23
21096;BME280;10706;49.036;12.112;2023-04-01T17:33:24;96559.34;;;8.09;94.14
21096;BME280;10706;49.036;12.112;2023-04-01T17:41:57;96578.50;;;8.11;91.82
21096;BME280;10706;49.036;12.112;2023-04-01T17:53:32;96595.47;;;8.05;93.12
21096;BME280;10706;49.036;12.112;2023-04-01T18:08:03;96607.13;;;8.04;93.17
21096;BME280;10706;49.036;12.112;2023-04-01T18:14:31;96606.09;;;8.05;94.72
21096;BME280;10706;49.036;12.112;2023-04-01T18:20:30;96619.66;;;8.09;93.67
21096;BME280;10706;49.036;12.112;2023-04-01T18:23:55;96620.97;;;8.06;93.60
21096;BME280;10706;49.036;12.112;2023-04-01T18:26:33;96626.28;;;8.06;93.20
21096;BME280;10706;49.036;12.112;2023-04-01T18:32:00;96627.09;;;8.07;92.27
21096;BME280;10706;49.036;12.112;2023-04-01T18:38:11;96629.50;;;8.08;92.40
21096;BME280;10706;49.036;12.112;2023-04-01T18:47:25;96641.81;;;8.14;90.84
21096;BME280;10706;49.036;12.112;2023-04-01T18:53:09;96648.69;;;8.10;92.51
21096;BME280;10706;49.036;12.112;2023-04-01T18:55:49;96651.34;;;8.10;91.66
21096;BME280;10706;49.036;12.112;2023-04-01T19:04:38;96659.63;;;8.14;91.08
21096;BME280;10706;49.036;12.112;2023-04-01T19:07:44;96658.59;;;8.15;91.08
21096;BME280;10706;49.036;12.112;2023-04-01T19:13:10;96656.41;;;8.12;91.64
21096;BME280;10706;49.036;12.112;2023-04-01T19:35:26;96679.03;;;8.14;90.52
21096;BME280;10706;49.036;12.112;2023-04-01T19:38:19;96682.50;;;8.15;90.72
21096;BME280;10706;49.036;12.112;2023-04-01T19:40:59;96679.91;;;8.20;90.15
21096;BME280;10706;49.036;12.112;2023-04-01T19:46:36;96688.63;;;8.15;89.58
21096;BME280;10706;49.036;12.112;2023-04-01T19:52:39;96693.38;;;8.13;90.47
21096;BME280;10706;49.036;12.112;2023-04-01T19:55:21;96709.09;;;8.15;90.37
21096;BME280;10706;49.036;12.112;2023-04-01T20:01:06;96712.00;;;8.13;88.74
21096;BME280;10706;49.036;12.112;2023-04-01T20:03:58;96710.66;;;8.11;90.31
21096;BME280;10706;49.036;12.112;2023-04-01T20:06:50;96708.78;;;8.11;89.44
21096;BME280;10706;49.036;12.112;2023-04-01T20:10:09;96722.31;;;8.10;89.63
21096;BME280;10706;49.036;12.112;2023-04-01T20:12:47;96713.78;;;8.08;89.78
21096;BME280;10706;49.036;12.112;2023-04-01T20:15:22;96727.63;;;8.10;89.84
21096;BME280;10706;49.036;12.112;2023-04-01T20:17:53;96723.13;;;8.10;89.70
21096;BME280;10706;49.036;12.112;2023-04-01T20:20:27;96727.94;;;8.13;90.76
21096;BME280;10706;49.036;12.112;2023-04-01T20:25:59;96720.69;;;8.09;91.11
21096;BME280;10706;49.036;12.112;2023-04-01T20:28:49;96717.00;;;8.10;90.43
21096;BME280;10706;49.036;12.112;2023-04-01T20:46:34;96737.94;;;8.06;92.68
21096;BME280;10706;49.036;12.112;2023-04-01T20:49:26;96728.66;;;8.09;91.87
21096;BME280;10706;49.036;12.112;2023-04-01T21:00:57;96728.09;;;8.07;92.23
21096;BME280;10706;49.036;12.112;2023-04-01T21:29:59;96747.88;;;7.94;92.23
21096;BME280;10706;49.036;12.112;2023-04-01T21:42:00;96754.47;;;7.91;91.27
21096;BME280;10706;49.036;12.112;2023-04-01T21:45:25;96761.66;;;7.91;91.89
21096;BME280;10706;49.036;12.112;2023-04-01T21:56:55;96769.06;;;7.89;91.90
21096;BME280;10706;49.036;12.112;2023-04-01T22:14:52;96766.41;;;7.89;91.73
21096;BME280;10706;49.036;12.112;2023-04-01T22:17:46;96768.81;;;7.90;90.42
21096;BME280;10706;49.036;12.112;2023-04-01T22:20:27;96770.66;;;7.90;89.79
21096;BME280;10706;49.036;12.112;2023-04-01T22:23:24;96772.28;;;7.91;90.08
21096;BME280;10706;49.036;12.112;2023-04-01T22:26:27;96775.97;;;7.90;90.38
21096;BME280;10706;49.036;12.112;2023-04-01T22:32:26;96776.53;;;7.92;90.58
21096;BME280;10706;49.036;12.112;2023-04-01T22:35:48;96776.53;;;7.92;90.62
21096;BME280;10706;49.036;12.112;2023-04-01T22:43:56;96785.34;;;7.92;90.32
21096;BME280;10706;49.036;12.112;2023-04-01T22:47:00;96787.75;;;7.94;90.10
21096;BME280;10706;49.036;12.112;2023-04-01T22:49:42;96794.91;;;7.93;90.20
21096;BME280;10706;49.036;12.112;2023-04-01T22:54:43;96794.66;;;7.95;90.71
21096;BME280;10706;49.036;12.112;2023-04-01T23:06:01;96800.72;;;8.24;90.64
21096;BME280;10706;49.036;12.112;2023-04-01T23:09:04;96805.28;;;8.29;89.37
21096;BME280;10706;49.036;12.112;2023-04-01T23:25:44;96816.59;;;8.02;90.64
21096;BME280;10706;49.036;12.112;2023-04-01T23:33:20;96826.13;;;7.86;90.62
21096;BME280;10706;49.036;12.112;2023-04-01T23:36:11;96828.97;;;7.79;91.25
21096;BME280;10706;49.036;12.112;2023-04-01T23:38:40;96827.56;;;7.77;91.28
21096;BME280;10706;49.036;12.112;2023-04-01T23:44:11;96839.03;;;7.77;90.77
21096;BME280;10706;49.036;12.112;2023-04-01T23:46:39;96838.53;;;7.81;90.37
21096;BME280;10706;49.036;12.112;2023-04-01T23:49:20;96836.44;;;7.83;89.91
21096;BME280;10706;49.036;12.112;2023-04-01T23:51:59;96840.50;;;7.85;90.80
21096;BME280;10706;49.036;12.112;2023-04-01T23:54:33;96836.44;;;7.83;89.79
21096;BME280;10706;49.036;12.112;2023-04-01T23:57:09;96830.81;;;7.79;90.17
21096;BME280;10706;49.036;12.112;2023-04-01T23:59:36;96835.88;;;7.81;89.31
